Terminal Aerodrome Forecast
Issued by NWS Blacksburg, VA

Home | Current Version | Previous Version | Text Only | Print | Product List | Glossary On
Versions: 1 2 3 4 5 6 7 8 9 10 11 12 13 14 15 16 17 18
000
FTUS41 KRNK 270654 AAA
TAFLYH
TAF AMD
KLYH 270654Z 2707/2806 00000KT 4SM BR SKC
      TEMPO 2707/2711 1/2SM FG VV002
     FM271400 20008KT P6SM FEW250
     FM271800 20010G18KT P6SM SCT045 SCT250
     FM272200 20012G20KT P6SM -SHRA BKN050
     FM280100 22008KT P6SM SCT060 BKN150=

USA.gov is the U.S. government's official web portal to all federal, state and local government web resources and services.